Time;durP1;ratioP1;P1;durP2;ratioP2;P2;SDS_P1;SDS_P2;PMS_P1;PMS_P2;Temp;Humidity;BMP_temperature;BMP_pressure;BME280_temperature;BME280_humidity;BME280_pressure;Samples;Min_cycle;Max_cycle;Signal;HPM_P1;HPM_P2
2021/10/08 00:01:24;;;;;;;3.63;1.60;;;19.10;99.90;;;;;;5014515;28;20466;-70
2021/10/08 00:03:51;;;;;;;2.58;1.88;;;19.10;99.90;;;;;;5014210;28;20022;-70
2021/10/08 00:06:17;;;;;;;3.30;1.80;;;19.10;99.90;;;;;;5014515;28;20030;-69
2021/10/08 00:08:44;;;;;;;1.90;1.67;;;19.00;99.90;;;;;;5013918;28;20030;-71
2021/10/08 00:11:10;;;;;;;2.55;1.63;;;19.00;99.90;;;;;;5014706;28;20076;-69
2021/10/08 00:13:36;;;;;;;2.97;1.85;;;19.00;99.90;;;;;;5014225;28;20040;-69
2021/10/08 00:16:02;;;;;;;4.07;1.92;;;19.00;99.90;;;;;;5013903;28;20457;-69
2021/10/08 00:18:27;;;;;;;2.47;1.85;;;19.00;99.90;;;;;;5013138;28;20492;-69
2021/10/08 00:20:54;;;;;;;2.97;1.70;;;19.00;99.90;;;;;;4996080;28;20108;-69
2021/10/08 00:23:20;;;;;;;2.25;1.70;;;19.00;99.90;;;;;;5014005;28;20479;-69
2021/10/08 00:25:46;;;;;;;2.15;1.63;;;19.00;99.90;;;;;;5013712;28;20037;-70
2021/10/08 00:28:11;;;;;;;2.33;1.48;;;19.00;99.90;;;;;;5014146;28;20073;-69
2021/10/08 00:30:37;;;;;;;2.60;1.73;;;19.00;99.90;;;;;;5014251;28;20550;-69
2021/10/08 00:33:04;;;;;;;2.30;1.63;;;19.00;99.90;;;;;;5013493;28;20064;-70
2021/10/08 00:35:29;;;;;;;3.95;1.80;;;19.00;99.90;;;;;;5013861;28;20026;-69
2021/10/08 00:37:55;;;;;;;2.42;1.73;;;18.90;99.90;;;;;;5013394;28;20029;-69
2021/10/08 00:40:21;;;;;;;2.38;1.65;;;18.90;99.90;;;;;;5013904;28;20493;-71
2021/10/08 00:42:48;;;;;;;2.20;1.80;;;18.90;99.90;;;;;;5013475;28;20497;-70
2021/10/08 00:45:14;;;;;;;2.38;1.73;;;18.90;99.90;;;;;;4995910;28;20077;-70
2021/10/08 00:47:40;;;;;;;2.42;1.73;;;18.90;99.90;;;;;;5013909;28;20482;-70
2021/10/08 00:50:08;;;;;;;2.20;1.77;;;18.90;99.90;;;;;;5013348;28;20026;-70
2021/10/08 00:52:33;;;;;;;2.20;1.67;;;18.90;99.90;;;;;;5013322;28;20037;-69
2021/10/08 00:54:59;;;;;;;2.50;1.80;;;18.90;99.90;;;;;;5013170;28;20030;-71
2021/10/08 00:57:25;;;;;;;3.65;1.63;;;18.90;99.90;;;;;;5013457;28;20105;-71
2021/10/08 00:59:50;;;;;;;2.53;1.83;;;18.90;99.90;;;;;;5013077;28;20462;-70
2021/10/08 01:02:17;;;;;;;3.83;1.70;;;18.90;99.90;;;;;;5013316;28;20381;-70
2021/10/08 01:04:45;;;;;;;3.13;2.05;;;18.90;99.90;;;;;;5013082;28;20034;-70
2021/10/08 01:07:11;;;;;;;3.00;2.00;;;18.80;99.90;;;;;;5013267;28;20084;-70
2021/10/08 01:09:37;;;;;;;2.92;1.63;;;18.90;99.90;;;;;;5013556;28;20022;-70
2021/10/08 01:12:03;;;;;;;3.25;1.88;;;18.80;99.90;;;;;;5012917;28;20040;-69
2021/10/08 01:14:28;;;;;;;3.15;2.00;;;18.80;99.90;;;;;;5013113;28;20073;-70
2021/10/08 01:16:54;;;;;;;3.30;2.00;;;18.80;99.90;;;;;;5012915;28;20067;-70
2021/10/08 01:19:20;;;;;;;4.43;1.60;;;18.80;99.90;;;;;;5012952;28;20030;-70
2021/10/08 01:21:46;;;;;;;3.15;1.90;;;18.80;99.90;;;;;;5012802;28;20022;-70
2021/10/08 01:24:11;;;;;;;2.47;1.80;;;18.80;99.90;;;;;;5013123;28;20075;-69
2021/10/08 01:26:37;;;;;;;1.63;1.48;;;18.80;99.90;;;;;;4995517;28;20424;-70
2021/10/08 01:29:08;;;;;;;2.45;1.70;;;18.80;99.90;;;;;;4995170;28;20026;-69
2021/10/08 01:31:34;;;;;;;3.45;1.70;;;18.70;99.90;;;;;;5012711;28;20026;-69
2021/10/08 01:34:00;;;;;;;2.92;2.15;;;18.70;99.90;;;;;;5012597;28;20236;-70
2021/10/08 01:36:26;;;;;;;2.67;1.90;;;18.70;99.90;;;;;;5012781;28;20049;-70
2021/10/08 01:38:52;;;;;;;2.42;1.83;;;18.70;99.90;;;;;;5012461;28;20378;-70
2021/10/08 01:41:18;;;;;;;2.90;1.70;;;18.70;99.90;;;;;;5012709;28;20485;-70
2021/10/08 01:43:43;;;;;;;1.70;1.60;;;18.70;99.90;;;;;;5012431;28;20057;-69
2021/10/08 01:46:09;;;;;;;2.58;1.70;;;18.70;99.90;;;;;;5012983;28;20100;-70
2021/10/08 01:48:35;;;;;;;3.38;1.80;;;18.70;99.90;;;;;;5012455;28;20030;-69
2021/10/08 01:51:00;;;;;;;2.03;1.55;;;18.70;99.90;;;;;;5012182;28;20080;-70
2021/10/08 01:53:26;;;;;;;2.25;1.60;;;18.70;99.90;;;;;;5012277;28;20041;-70
2021/10/08 01:55:52;;;;;;;4.97;1.92;;;18.70;99.90;;;;;;5012091;28;20057;-70
2021/10/08 01:58:18;;;;;;;2.63;1.80;;;18.60;99.90;;;;;;5012301;28;20152;-71
2021/10/08 02:00:43;;;;;;;2.90;2.00;;;18.60;99.90;;;;;;5012244;28;20022;-70
2021/10/08 02:03:09;;;;;;;3.20;1.75;;;18.60;99.90;;;;;;5012561;28;20029;-70
2021/10/08 02:05:35;;;;;;;2.47;1.60;;;18.60;99.90;;;;;;5012191;28;20091;-69
2021/10/08 02:08:00;;;;;;;2.65;1.60;;;18.60;99.90;;;;;;5011763;28;20080;-70
2021/10/08 02:10:26;;;;;;;3.72;1.70;;;18.60;99.90;;;;;;5012187;28;20029;-70
2021/10/08 02:12:51;;;;;;;2.55;1.88;;;18.60;99.90;;;;;;5011816;28;20430;-70
2021/10/08 02:15:17;;;;;;;2.15;1.80;;;18.60;99.90;;;;;;5012072;28;20105;-70
2021/10/08 02:17:43;;;;;;;2.00;1.60;;;18.60;99.90;;;;;;5011829;28;20034;-71
2021/10/08 02:20:10;;;;;;;2.10;1.63;;;18.60;99.90;;;;;;5012117;28;20018;-70
2021/10/08 02:22:36;;;;;;;1.98;1.73;;;18.50;99.90;;;;;;5011894;28;20540;-69
2021/10/08 02:25:02;;;;;;;2.47;1.58;;;18.50;99.90;;;;;;4994024;28;20029;-69
2021/10/08 02:27:27;;;;;;;2.40;1.80;;;18.50;99.90;;;;;;4994396;28;20053;-70
2021/10/08 02:29:53;;;;;;;1.77;1.45;;;18.50;99.90;;;;;;5011672;28;20474;-71
2021/10/08 02:32:18;;;;;;;1.98;1.70;;;18.50;99.90;;;;;;5011840;28;20541;-70
2021/10/08 02:34:44;;;;;;;2.55;1.85;;;18.50;99.90;;;;;;5011454;28;20489;-71
2021/10/08 02:37:10;;;;;;;2.42;1.80;;;18.50;99.90;;;;;;4994423;28;20018;-71
2021/10/08 02:39:35;;;;;;;2.10;1.65;;;18.50;99.90;;;;;;5011767;28;20065;-71
2021/10/08 02:42:04;;;;;;;2.67;1.70;;;18.50;99.90;;;;;;5010955;28;20887;-69
2021/10/08 02:44:30;;;;;;;2.70;1.67;;;18.40;99.90;;;;;;5011574;28;20540;-67
2021/10/08 02:46:56;;;;;;;2.13;1.70;;;18.40;99.90;;;;;;5011318;28;20030;-68
2021/10/08 02:49:21;;;;;;;2.53;1.80;;;18.40;99.90;;;;;;5011554;28;20030;-69
2021/10/08 02:51:49;;;;;;;2.20;1.75;;;18.40;99.90;;;;;;5011378;28;20018;-68
2021/10/08 02:54:15;;;;;;;2.28;1.77;;;18.40;99.90;;;;;;5011553;28;20529;-68
2021/10/08 02:56:41;;;;;;;2.90;1.83;;;18.40;99.90;;;;;;5011698;28;20105;-68
2021/10/08 02:59:07;;;;;;;2.65;1.77;;;18.40;99.90;;;;;;5011728;28;20026;-69
2021/10/08 03:01:32;;;;;;;3.40;1.63;;;18.40;99.90;;;;;;5011392;28;20367;-69
2021/10/08 03:04:00;;;;;;;2.00;1.70;;;18.40;99.90;;;;;;5011005;28;20033;-70
2021/10/08 03:06:26;;;;;;;2.25;1.85;;;18.40;99.90;;;;;;4993835;28;20108;-69
2021/10/08 03:08:53;;;;;;;4.07;1.88;;;18.40;99.90;;;;;;5011125;28;20117;-69
2021/10/08 03:11:19;;;;;;;2.45;1.63;;;18.40;99.90;;;;;;5011208;28;20032;-69
2021/10/08 03:13:45;;;;;;;2.78;1.70;;;18.40;99.90;;;;;;5011093;28;20038;-70
2021/10/08 03:16:10;;;;;;;4.30;1.83;;;18.40;99.90;;;;;;5011601;28;20050;-71
2021/10/08 03:18:36;;;;;;;2.88;1.60;;;18.40;99.90;;;;;;5011761;28;20111;-68
2021/10/08 03:21:02;;;;;;;2.42;1.88;;;18.40;99.90;;;;;;5011156;28;20105;-70
2021/10/08 03:23:27;;;;;;;2.40;1.75;;;18.30;99.90;;;;;;5011242;28;20108;-69
2021/10/08 03:25:53;;;;;;;1.88;1.60;;;18.30;99.90;;;;;;5010966;28;20109;-70
2021/10/08 03:28:19;;;;;;;4.45;1.80;;;18.30;99.90;;;;;;5011151;28;20026;-70
2021/10/08 03:30:44;;;;;;;2.03;1.67;;;18.30;99.90;;;;;;5011048;28;20405;-70
2021/10/08 03:33:10;;;;;;;2.45;1.95;;;18.30;99.90;;;;;;5011283;28;20049;-69
2021/10/08 03:35:36;;;;;;;4.35;1.83;;;18.30;99.90;;;;;;5011223;28;20454;-70
2021/10/08 03:38:09;;;;;;;2.92;1.50;;;18.30;99.90;;;;;;5010869;28;20137;-69
2021/10/08 03:40:35;;;;;;;3.13;1.77;;;18.30;99.90;;;;;;5011160;28;20072;-70
2021/10/08 03:43:01;;;;;;;1.80;1.50;;;18.30;99.90;;;;;;5010889;28;20026;-69
2021/10/08 03:45:36;;;;;;;2.08;1.65;;;18.20;99.90;;;;;;5011078;28;20512;-70
2021/10/08 03:48:34;;;;;;;2.35;1.80;;;18.20;99.90;;;;;;5010693;28;20471;-69
2021/10/08 03:51:04;;;;;;;2.65;1.95;;;18.20;99.90;;;;;;5011000;28;20030;-70
2021/10/08 03:53:30;;;;;;;2.55;1.70;;;18.20;99.90;;;;;;4995295;28;20033;-70
2021/10/08 03:55:56;;;;;;;2.50;1.83;;;18.20;99.90;;;;;;5014270;28;20022;-71
2021/10/08 03:58:22;;;;;;;2.97;1.60;;;18.20;99.90;;;;;;5014505;28;20026;-69
2021/10/08 04:00:48;;;;;;;2.25;1.70;;;18.20;99.90;;;;;;5014376;28;20030;-70
2021/10/08 04:03:14;;;;;;;2.30;1.95;;;18.20;99.90;;;;;;5014292;28;20038;-71
2021/10/08 04:05:41;;;;;;;2.22;1.70;;;18.20;99.90;;;;;;5015071;28;20068;-70
2021/10/08 04:08:06;;;;;;;2.13;1.60;;;18.20;99.90;;;;;;5014249;28;20041;-70
2021/10/08 04:10:32;;;;;;;2.40;1.77;;;18.20;99.90;;;;;;4992788;28;20042;-67
2021/10/08 04:12:58;;;;;;;3.53;1.90;;;18.10;99.90;;;;;;4995173;28;20038;-68
2021/10/08 04:15:23;;;;;;;2.30;1.40;;;18.10;99.90;;;;;;5006557;28;20022;-69
2021/10/08 04:17:49;;;;;;;2.53;1.80;;;18.10;99.90;;;;;;5013368;28;20040;-69
2021/10/08 04:20:15;;;;;;;2.08;1.80;;;18.10;99.90;;;;;;5013855;28;20033;-67
2021/10/08 04:22:40;;;;;;;2.15;1.67;;;18.10;99.90;;;;;;5013844;28;20426;-67
2021/10/08 04:25:07;;;;;;;3.13;1.98;;;18.10;99.90;;;;;;5012601;28;20040;-68
2021/10/08 04:27:33;;;;;;;2.78;1.90;;;18.10;99.90;;;;;;5013320;28;20022;-68
2021/10/08 04:29:58;;;;;;;2.28;1.98;;;18.10;99.90;;;;;;5013570;28;20041;-69
2021/10/08 04:32:24;;;;;;;2.47;2.10;;;18.10;99.90;;;;;;5012847;28;20080;-69
2021/10/08 04:34:50;;;;;;;2.05;1.85;;;18.00;99.90;;;;;;5012907;28;20044;-68
2021/10/08 04:37:15;;;;;;;2.40;1.80;;;18.00;99.90;;;;;;5013460;28;20084;-69
2021/10/08 04:39:41;;;;;;;2.60;2.05;;;18.00;99.90;;;;;;5008068;28;20028;-69
2021/10/08 04:42:07;;;;;;;3.53;2.25;;;18.00;99.90;;;;;;5001189;28;20030;-69
2021/10/08 04:44:33;;;;;;;2.08;1.88;;;18.00;99.90;;;;;;5013687;28;20032;-68
2021/10/08 04:46:59;;;;;;;4.55;1.88;;;18.00;99.90;;;;;;5013451;28;20018;-71
2021/10/08 04:49:26;;;;;;;3.80;1.80;;;18.00;99.90;;;;;;5013686;28;20022;-72
2021/10/08 04:51:51;;;;;;;2.65;2.10;;;18.10;99.90;;;;;;5005896;28;20482;-72
2021/10/08 04:54:17;;;;;;;3.75;1.83;;;18.10;99.90;;;;;;4993732;28;20034;-71
2021/10/08 04:56:43;;;;;;;3.13;1.90;;;18.10;99.90;;;;;;4994483;28;20037;-71
2021/10/08 04:59:08;;;;;;;2.50;1.80;;;18.10;99.90;;;;;;4994106;28;20069;-70
2021/10/08 05:01:34;;;;;;;3.50;1.80;;;18.10;99.90;;;;;;5000219;28;20030;-74
2021/10/08 05:04:00;;;;;;;2.20;1.90;;;18.10;99.90;;;;;;5011003;28;20486;-72
2021/10/08 05:06:25;;;;;;;3.65;1.80;;;18.10;99.90;;;;;;5007712;28;20031;-71
2021/10/08 05:08:51;;;;;;;2.33;1.67;;;18.10;99.90;;;;;;5004844;28;20029;-71
2021/10/08 05:11:17;;;;;;;2.35;1.80;;;18.20;99.90;;;;;;5013393;28;20026;-69
2021/10/08 05:13:42;;;;;;;2.85;1.67;;;18.20;99.90;;;;;;5012913;28;20037;-70
2021/10/08 05:16:08;;;;;;;1.65;1.55;;;18.20;99.90;;;;;;4995797;28;20026;-69
2021/10/08 05:18:34;;;;;;;3.72;1.70;;;18.20;99.90;;;;;;5013219;28;20435;-69
2021/10/08 05:20:59;;;;;;;3.25;2.00;;;18.30;99.90;;;;;;5012681;28;20433;-70
2021/10/08 05:23:25;;;;;;;2.08;1.80;;;18.30;99.90;;;;;;5003110;28;20105;-70
2021/10/08 05:25:51;;;;;;;2.35;1.92;;;18.30;99.90;;;;;;4996953;28;20060;-71
2021/10/08 05:28:16;;;;;;;1.80;1.60;;;18.40;99.90;;;;;;5012116;28;20084;-72
2021/10/08 05:30:42;;;;;;;2.60;1.50;;;18.40;99.90;;;;;;5012637;28;20026;-70
2021/10/08 05:33:08;;;;;;;8.77;1.83;;;18.40;99.90;;;;;;5008140;28;20088;-68
2021/10/08 05:35:33;;;;;;;2.47;1.85;;;18.50;99.90;;;;;;5012870;28;20072;-69
2021/10/08 05:37:59;;;;;;;1.88;1.70;;;18.50;99.90;;;;;;4997540;28;20037;-70
2021/10/08 05:40:25;;;;;;;6.28;1.80;;;18.50;99.90;;;;;;4993264;28;20022;-69
2021/10/08 05:42:51;;;;;;;4.85;1.83;;;18.60;99.90;;;;;;4993068;28;20022;-69
2021/10/08 05:45:16;;;;;;;2.53;1.80;;;18.60;99.90;;;;;;4994500;28;20026;-70
2021/10/08 05:47:42;;;;;;;4.00;1.73;;;18.60;99.90;;;;;;5003740;28;20060;-66
2021/10/08 05:50:08;;;;;;;5.95;2.10;;;18.60;99.90;;;;;;5010359;28;20029;-71
2021/10/08 05:52:34;;;;;;;1.95;1.58;;;18.60;99.90;;;;;;5012067;28;20084;-67
2021/10/08 05:54:59;;;;;;;2.90;1.80;;;18.60;99.90;;;;;;5012361;28;20058;-69
2021/10/08 05:57:25;;;;;;;2.00;1.50;;;18.70;99.90;;;;;;5012537;28;20488;-71
2021/10/08 05:59:51;;;;;;;3.05;2.20;;;18.70;99.90;;;;;;5012202;28;20030;-68
2021/10/08 06:02:16;;;;;;;3.42;1.73;;;18.70;99.90;;;;;;5006758;28;20083;-67
2021/10/08 06:04:42;;;;;;;3.63;1.73;;;18.70;99.90;;;;;;5012137;28;20100;-71
2021/10/08 06:07:10;;;;;;;3.63;2.00;;;18.70;99.90;;;;;;5010779;28;20077;-70
2021/10/08 06:09:36;;;;;;;6.03;2.20;;;18.80;99.90;;;;;;5009461;28;20025;-68
2021/10/08 06:12:02;;;;;;;3.83;2.03;;;18.70;99.90;;;;;;4992475;28;20769;-72
2021/10/08 06:14:28;;;;;;;6.55;2.10;;;18.70;99.90;;;;;;4992535;28;20042;-68
2021/10/08 06:16:54;;;;;;;3.63;2.08;;;18.80;99.90;;;;;;4991591;28;20033;-68
2021/10/08 06:19:19;;;;;;;3.33;1.98;;;18.80;99.90;;;;;;4992763;28;20487;-72
2021/10/08 06:21:45;;;;;;;3.88;2.28;;;18.80;99.90;;;;;;4996163;28;20387;-72
2021/10/08 06:24:10;;;;;;;3.85;2.35;;;18.80;99.90;;;;;;5001014;28;20033;-72
2021/10/08 06:26:36;;;;;;;7.32;2.30;;;18.80;99.90;;;;;;4992469;28;20161;-69
2021/10/08 06:29:02;;;;;;;7.60;2.45;;;18.90;99.90;;;;;;4996426;28;20033;-71
2021/10/08 06:31:27;;;;;;;5.00;2.50;;;18.90;99.90;;;;;;5011734;28;20032;-75
2021/10/08 06:33:53;;;;;;;9.23;2.60;;;18.90;99.90;;;;;;5010477;28;20048;-69
2021/10/08 06:36:19;;;;;;;9.88;3.30;;;18.90;99.90;;;;;;5011321;28;20060;-70
2021/10/08 06:38:44;;;;;;;8.85;3.10;;;18.90;99.90;;;;;;5011472;28;20528;-68
2021/10/08 06:41:10;;;;;;;14.98;3.03;;;19.00;99.90;;;;;;5012041;28;20561;-71
2021/10/08 06:43:36;;;;;;;12.23;3.30;;;19.00;99.90;;;;;;5011854;28;20092;-70
2021/10/08 06:46:02;;;;;;;6.63;2.80;;;18.90;99.90;;;;;;5007096;28;20034;-70
2021/10/08 06:48:27;;;;;;;8.57;2.83;;;18.90;99.90;;;;;;5011082;28;20104;-69
2021/10/08 06:50:53;;;;;;;7.32;2.60;;;18.90;99.90;;;;;;4995345;28;20022;-69
2021/10/08 06:53:18;;;;;;;6.15;2.95;;;18.90;99.90;;;;;;4993342;28;20042;-70
2021/10/08 06:55:46;;;;;;;6.53;2.63;;;18.90;99.90;;;;;;4992894;28;20404;-69
2021/10/08 06:58:12;;;;;;;7.43;2.58;;;18.90;99.90;;;;;;4999214;28;20034;-68
2021/10/08 07:00:38;;;;;;;6.50;2.80;;;18.90;99.90;;;;;;5010916;28;20033;-68
2021/10/08 07:03:04;;;;;;;4.90;2.72;;;18.80;99.90;;;;;;5011331;28;20069;-70
2021/10/08 07:05:29;;;;;;;6.50;2.95;;;18.90;99.90;;;;;;5011649;28;20029;-67
2021/10/08 07:07:55;;;;;;;4.07;2.25;;;18.80;99.90;;;;;;5011364;28;20033;-71
2021/10/08 07:10:21;;;;;;;5.82;2.97;;;18.80;99.90;;;;;;5011687;28;20021;-71
2021/10/08 07:12:47;;;;;;;6.40;2.83;;;18.80;99.90;;;;;;5011316;28;20449;-68
2021/10/08 07:15:16;;;;;;;6.10;2.75;;;18.80;99.90;;;;;;5011640;28;20156;-70
2021/10/08 07:17:45;;;;;;;4.65;2.55;;;18.70;99.90;;;;;;5011448;28;20026;-69
2021/10/08 07:20:12;;;;;;;3.83;2.17;;;18.70;99.90;;;;;;5011894;28;20033;-69
2021/10/08 07:22:38;;;;;;;5.05;2.55;;;18.80;99.90;;;;;;5011754;28;20022;-68
2021/10/08 07:25:09;;;;;;;4.80;2.47;;;18.70;99.90;;;;;;5011129;28;20030;-73
2021/10/08 07:27:36;;;;;;;5.03;2.35;;;18.70;99.90;;;;;;4995085;28;20069;-70
2021/10/08 07:30:03;;;;;;;4.95;2.50;;;18.70;99.90;;;;;;5015151;28;20345;-68
2021/10/08 07:32:29;;;;;;;7.03;2.60;;;18.70;99.90;;;;;;5015351;28;20036;-70
2021/10/08 07:34:55;;;;;;;4.85;2.58;;;18.70;99.90;;;;;;5014989;28;20109;-69
2021/10/08 07:37:21;;;;;;;4.53;2.58;;;18.70;99.90;;;;;;5015244;28;20385;-69
2021/10/08 07:39:47;;;;;;;5.03;2.83;;;18.60;99.90;;;;;;5014788;28;20056;-68
2021/10/08 07:42:12;;;;;;;6.25;2.22;;;18.60;99.90;;;;;;5015394;28;20440;-67
2021/10/08 07:44:38;;;;;;;4.65;2.42;;;18.60;99.90;;;;;;5015339;28;20034;-68
2021/10/08 07:47:04;;;;;;;5.25;2.28;;;18.60;99.90;;;;;;5014715;28;20072;-70
2021/10/08 07:49:29;;;;;;;4.68;2.67;;;18.60;99.90;;;;;;5014953;28;20026;-70
2021/10/08 07:51:55;;;;;;;3.80;2.40;;;18.60;99.90;;;;;;5014534;28;20022;-70
2021/10/08 07:54:20;;;;;;;3.58;2.20;;;18.60;99.90;;;;;;5014739;28;20099;-69
2021/10/08 07:56:46;;;;;;;4.32;2.47;;;18.60;99.90;;;;;;5014624;28;20026;-68
2021/10/08 07:59:12;;;;;;;4.13;2.60;;;18.60;99.90;;;;;;5014774;28;20466;-68
2021/10/08 08:01:37;;;;;;;3.15;2.30;;;18.60;99.90;;;;;;5014975;28;20050;-69
2021/10/08 08:04:03;;;;;;;4.28;2.33;;;18.50;99.90;;;;;;5014717;28;20025;-69
2021/10/08 08:06:29;;;;;;;4.90;2.40;;;18.50;99.90;;;;;;5014490;28;20026;-68
2021/10/08 08:08:54;;;;;;;5.22;2.33;;;18.50;99.90;;;;;;5014096;28;20026;-70
2021/10/08 08:11:20;;;;;;;3.60;2.33;;;18.50;99.90;;;;;;5014592;28;20026;-69
2021/10/08 08:13:46;;;;;;;4.03;2.30;;;18.50;99.90;;;;;;5014329;28;20034;-71
2021/10/08 08:16:12;;;;;;;3.95;2.40;;;18.50;99.90;;;;;;5014503;28;20417;-68
2021/10/08 08:18:38;;;;;;;4.57;2.75;;;18.50;99.90;;;;;;5014792;28;20096;-68
2021/10/08 08:21:04;;;;;;;3.97;2.33;;;18.50;99.90;;;;;;5014128;28;20054;-67
2021/10/08 08:23:30;;;;;;;3.85;2.53;;;18.50;99.90;;;;;;5014449;28;20036;-68
2021/10/08 08:25:55;;;;;;;3.90;2.30;;;18.50;99.90;;;;;;5014002;28;20065;-69
2021/10/08 08:28:22;;;;;;;3.33;2.30;;;18.50;99.90;;;;;;5014195;28;20025;-71
2021/10/08 08:30:48;;;;;;;3.10;2.17;;;18.50;99.90;;;;;;5013975;28;20021;-70
2021/10/08 08:33:14;;;;;;;3.80;2.13;;;18.50;99.90;;;;;;5014165;28;20537;-69
2021/10/08 08:35:39;;;;;;;3.17;2.20;;;18.50;99.90;;;;;;5014414;28;20022;-68
2021/10/08 08:38:05;;;;;;;3.60;2.30;;;18.50;99.90;;;;;;5013684;28;20033;-68
2021/10/08 08:40:31;;;;;;;3.47;2.33;;;18.50;99.90;;;;;;5012997;28;20029;-68
2021/10/08 08:43:00;;;;;;;3.58;2.28;;;18.50;99.90;;;;;;5013735;28;20069;-70
2021/10/08 08:45:27;;;;;;;3.63;2.20;;;18.50;99.90;;;;;;5013898;28;20026;-68
2021/10/08 08:48:03;;;;;;;3.40;2.30;;;18.50;99.90;;;;;;5013649;28;20034;-72
2021/10/08 08:50:30;;;;;;;3.65;2.45;;;18.50;99.90;;;;;;5013847;28;20532;-68
2021/10/08 08:52:56;;;;;;;3.33;2.20;;;18.50;99.90;;;;;;5013458;28;20038;-70
2021/10/08 08:55:22;;;;;;;4.10;2.55;;;18.50;99.90;;;;;;5013821;28;20029;-69
2021/10/08 08:57:48;;;;;;;2.90;2.30;;;18.50;99.90;;;;;;5013419;28;20041;-70
2021/10/08 09:00:17;;;;;;;3.05;2.20;;;18.50;99.90;;;;;;5013589;28;20030;-72
2021/10/08 09:02:43;;;;;;;3.97;2.20;;;18.50;99.90;;;;;;5013183;28;20022;-68
2021/10/08 09:05:33;;;;;;;3.90;2.45;;;18.50;99.90;;;;;;5013851;28;20030;-72
2021/10/08 09:08:04;;;;;;;3.40;2.20;;;18.50;99.90;;;;;;5007955;28;20065;-72
2021/10/08 09:10:31;;;;;;;3.80;2.70;;;18.50;99.90;;;;;;5013392;28;20077;-71
2021/10/08 09:12:58;;;;;;;3.05;2.30;;;18.50;99.90;;;;;;5013018;28;20038;-70
2021/10/08 09:15:27;;;;;;;3.10;2.22;;;18.50;99.90;;;;;;5013328;28;20040;-69
2021/10/08 09:18:09;;;;;;;3.28;2.60;;;18.50;99.90;;;;;;5013081;28;20058;-72
2021/10/08 09:20:36;;;;;;;4.30;2.63;;;18.50;99.90;;;;;;5013212;28;20347;-70
2021/10/08 09:23:03;;;;;;;5.30;2.58;;;18.50;99.90;;;;;;5012835;28;20026;-72
2021/10/08 09:25:33;;;;;;;4.20;2.70;;;18.50;99.90;;;;;;5013289;28;20025;-71
2021/10/08 09:28:05;;;;;;;5.30;2.83;;;18.50;99.90;;;;;;5013052;28;20025;-71
2021/10/08 09:30:49;;;;;;;4.70;2.80;;;18.60;99.90;;;;;;5013205;28;20034;-72
2021/10/08 09:33:19;;;;;;;3.90;2.55;;;18.60;99.90;;;;;;5012638;28;20104;-70
2021/10/08 09:35:45;;;;;;;4.10;2.90;;;18.60;99.90;;;;;;5012861;28;20029;-70
2021/10/08 09:38:14;;;;;;;3.40;2.50;;;18.60;99.90;;;;;;5013202;28;20462;-72
2021/10/08 09:40:44;;;;;;;4.20;2.88;;;18.60;99.90;;;;;;5013233;28;20030;-72
2021/10/08 09:43:12;;;;;;;4.53;2.92;;;18.60;99.90;;;;;;5013173;28;20025;-71
2021/10/08 09:45:44;;;;;;;4.20;2.78;;;18.60;99.90;;;;;;5013000;28;20096;-71
2021/10/08 09:48:11;;;;;;;3.30;2.53;;;18.60;99.90;;;;;;5012923;28;20469;-70
2021/10/08 09:50:38;;;;;;;3.63;2.67;;;18.60;99.90;;;;;;5012917;28;20371;-71
2021/10/08 09:53:15;;;;;;;4.63;2.90;;;18.70;99.90;;;;;;5012385;28;20561;-72
2021/10/08 09:55:42;;;;;;;3.38;2.72;;;18.70;99.90;;;;;;5012891;28;20045;-69
2021/10/08 09:58:09;;;;;;;4.20;2.88;;;18.70;99.90;;;;;;5012912;28;20402;-68
2021/10/08 10:00:39;;;;;;;4.05;2.70;;;18.70;99.90;;;;;;5012408;28;20022;-71
2021/10/08 10:03:06;;;;;;;3.85;2.70;;;18.70;99.90;;;;;;5012264;28;20030;-69
2021/10/08 10:05:33;;;;;;;3.72;2.80;;;18.70;99.90;;;;;;5012454;28;20493;-72
2021/10/08 10:07:59;;;;;;;4.47;2.88;;;18.70;99.90;;;;;;5011989;28;20033;-69
2021/10/08 10:10:25;;;;;;;4.15;2.95;;;18.80;99.90;;;;;;5012377;28;20022;-69
2021/10/08 10:12:51;;;;;;;5.18;2.78;;;18.70;99.90;;;;;;5012076;28;20053;-68
2021/10/08 10:15:18;;;;;;;5.03;2.90;;;18.80;99.90;;;;;;5012261;28;20030;-69
2021/10/08 10:17:44;;;;;;;4.35;2.60;;;18.80;99.90;;;;;;5012010;28;20033;-70
2021/10/08 10:20:11;;;;;;;4.80;3.17;;;18.80;99.90;;;;;;5012472;28;20374;-69
2021/10/08 10:22:38;;;;;;;4.15;2.90;;;18.80;99.90;;;;;;5012485;28;20120;-69
2021/10/08 10:25:05;;;;;;;3.88;2.95;;;18.80;99.90;;;;;;5011997;28;20470;-72
2021/10/08 10:27:32;;;;;;;4.05;3.10;;;18.80;99.90;;;;;;5012104;28;20525;-72
2021/10/08 10:29:58;;;;;;;4.07;2.80;;;18.80;99.90;;;;;;5012021;28;20054;-70
2021/10/08 10:32:25;;;;;;;3.33;2.83;;;18.90;99.90;;;;;;4994310;28;20022;-71
2021/10/08 10:34:50;;;;;;;4.68;2.92;;;18.90;99.90;;;;;;5011745;28;20034;-70
2021/10/08 10:37:41;;;;;;;4.07;3.03;;;18.90;99.90;;;;;;5012075;28;20364;-69
2021/10/08 10:40:23;;;;;;;4.63;3.13;;;18.90;99.90;;;;;;4989805;28;20038;-70
2021/10/08 10:43:14;;;;;;;4.25;3.30;;;18.90;99.90;;;;;;5011702;28;20100;-69
2021/10/08 10:46:32;;;;;;;4.22;2.95;;;18.90;99.90;;;;;;5012160;28;20038;-71
2021/10/08 10:51:56;;;;;;;3.92;3.15;;;18.90;99.90;;;;;;5011666;28;20053;-72
2021/10/08 10:54:52;;;;;;;4.82;3.10;;;19.00;99.90;;;;;;5011503;28;20508;-71
2021/10/08 10:57:30;;;;;;;4.13;2.90;;;19.00;99.90;;;;;;5011821;28;20111;-71
2021/10/08 11:00:29;;;;;;;4.15;2.95;;;19.00;99.90;;;;;;5011544;28;20026;-70
2021/10/08 11:03:07;;;;;;;6.10;3.05;;;19.00;99.90;;;;;;5012564;28;20040;-72
2021/10/08 11:05:37;;;;;;;4.68;3.28;;;19.00;99.90;;;;;;5016007;28;20069;-70
2021/10/08 11:08:14;;;;;;;5.05;3.28;;;19.00;99.90;;;;;;5015385;28;20057;-72
2021/10/08 11:11:06;;;;;;;5.40;3.78;;;19.10;99.90;;;;;;5015953;28;20026;-69
2021/10/08 11:13:36;;;;;;;5.53;3.58;;;19.10;99.90;;;;;;5015478;28;20045;-72
2021/10/08 11:16:08;;;;;;;4.55;3.20;;;19.10;99.90;;;;;;5015370;28;20018;-71
2021/10/08 11:18:44;;;;;;;3.53;2.92;;;19.10;99.90;;;;;;5015457;28;20389;-70
2021/10/08 11:21:34;;;;;;;4.28;3.30;;;19.10;99.90;;;;;;5015860;28;20088;-70
2021/10/08 11:24:16;;;;;;;4.47;3.10;;;19.20;99.90;;;;;;5009998;28;20034;-70
2021/10/08 11:26:49;;;;;;;4.18;3.10;;;19.20;99.90;;;;;;5015136;28;20385;-69
2021/10/08 11:29:15;;;;;;;4.65;3.10;;;19.20;99.90;;;;;;5015452;28;20026;-70
2021/10/08 11:31:40;;;;;;;4.72;3.40;;;19.20;99.90;;;;;;5015649;28;20033;-70
2021/10/08 11:34:15;;;;;;;4.72;3.30;;;19.20;99.90;;;;;;5014953;28;20502;-72
2021/10/08 11:36:41;;;;;;;5.05;3.35;;;19.20;99.90;;;;;;5015970;28;20405;-70
2021/10/08 11:39:17;;;;;;;5.18;3.30;;;19.20;99.90;;;;;;5015256;28;20033;-70
2021/10/08 11:42:09;;;;;;;3.72;2.83;;;19.30;99.90;;;;;;4997329;28;20030;-70
2021/10/08 11:44:39;;;;;;;3.70;2.75;;;19.30;99.90;;;;;;4997462;28;20025;-70
2021/10/08 11:47:17;;;;;;;3.85;2.88;;;19.30;99.90;;;;;;5014750;28;20022;-70
2021/10/08 11:50:07;;;;;;;4.43;2.85;;;19.30;99.90;;;;;;5014832;28;20033;-70
2021/10/08 11:52:39;;;;;;;3.40;2.60;;;19.30;99.90;;;;;;5014844;28;20437;-70
2021/10/08 11:55:07;;;;;;;3.67;2.55;;;19.30;99.90;;;;;;5014646;28;20036;-70
2021/10/08 11:57:58;;;;;;;3.55;2.70;;;19.40;99.90;;;;;;5014967;28;20031;-70
2021/10/08 12:00:27;;;;;;;4.18;3.10;;;19.40;99.90;;;;;;5009595;28;20038;-73
2021/10/08 12:03:07;;;;;;;3.17;2.58;;;19.40;99.90;;;;;;5014431;28;20038;-72
2021/10/08 12:05:48;;;;;;;3.80;2.50;;;19.40;99.90;;;;;;4997338;28;20033;-72
2021/10/08 12:08:17;;;;;;;3.80;2.58;;;19.40;99.90;;;;;;4997140;28;20053;-71
2021/10/08 12:10:54;;;;;;;4.90;2.50;;;19.50;99.90;;;;;;5014198;28;20026;-73
2021/10/08 12:13:20;;;;;;;3.83;2.70;;;19.50;99.90;;;;;;5014432;28;20026;-74
2021/10/08 12:15:46;;;;;;;2.75;2.45;;;19.50;99.90;;;;;;5012949;28;20092;-73
2021/10/08 12:18:15;;;;;;;3.38;2.58;;;19.50;99.90;;;;;;5014688;28;20171;-70
2021/10/08 12:20:41;;;;;;;3.40;2.13;;;19.50;99.90;;;;;;5014561;28;20072;-73
2021/10/08 12:23:24;;;;;;;3.40;2.60;;;19.60;99.90;;;;;;5014714;28;20030;-73
2021/10/08 12:25:54;;;;;;;3.30;2.55;;;19.60;99.90;;;;;;5014165;28;20470;-73
2021/10/08 12:28:23;;;;;;;3.00;2.50;;;19.60;99.90;;;;;;5014168;28;20025;-72
2021/10/08 12:31:14;;;;;;;2.90;2.55;;;19.60;99.90;;;;;;5013900;28;20037;-71
2021/10/08 12:33:42;;;;;;;4.70;2.58;;;19.60;99.90;;;;;;4996739;28;20041;-72
2021/10/08 12:36:24;;;;;;;2.70;2.30;;;19.60;99.90;;;;;;5014632;28;20080;-72
2021/10/08 12:39:03;;;;;;;2.80;2.47;;;19.70;99.90;;;;;;5013721;28;20394;-72
2021/10/08 12:41:51;;;;;;;3.42;2.42;;;19.70;99.90;;;;;;5014462;28;20401;-72
2021/10/08 12:44:20;;;;;;;3.47;2.63;;;19.70;99.90;;;;;;4996435;28;20025;-71
2021/10/08 12:47:08;;;;;;;3.88;2.55;;;19.70;99.90;;;;;;5013682;28;20076;-73
2021/10/08 12:49:48;;;;;;;2.95;2.30;;;19.70;99.90;;;;;;5013737;28;20033;-72
2021/10/08 12:52:16;;;;;;;3.08;2.33;;;19.80;99.90;;;;;;5014006;28;20022;-70
2021/10/08 12:54:44;;;;;;;2.60;2.30;;;19.80;99.90;;;;;;5014002;28;20042;-70
2021/10/08 12:57:20;;;;;;;3.13;2.20;;;19.80;99.90;;;;;;5013894;28;20018;-73